createdAt,value
2019-02-08T00:08:13.235Z,963.6
2019-02-08T00:18:17.133Z,963.6
2019-02-08T00:28:20.820Z,963.7
2019-02-08T00:38:24.501Z,963.7
2019-02-08T00:48:28.195Z,963.8
2019-02-08T00:58:31.886Z,963.7
2019-02-08T01:08:35.572Z,963.7
2019-02-08T01:18:39.701Z,963.6
2019-02-08T01:28:43.390Z,963.7
2019-02-08T01:38:47.064Z,963.7
2019-02-08T01:48:50.745Z,963.7
2019-02-08T01:58:54.424Z,963.6
2019-02-08T02:08:58.096Z,963.7
2019-02-08T02:19:01.772Z,963.7
2019-02-08T02:29:05.459Z,963.9
2019-02-08T02:39:09.131Z,963.8
2019-02-08T02:49:12.820Z,964
2019-02-08T02:59:16.512Z,963.9
2019-02-08T03:09:20.238Z,963.9
2019-02-08T03:19:23.919Z,963.9
2019-02-08T03:29:27.617Z,963.8
2019-02-08T03:39:31.266Z,963.9
2019-02-08T03:49:34.938Z,963.9
2019-02-08T03:59:38.623Z,963.9
2019-02-08T04:09:42.289Z,963.9
2019-02-08T04:19:45.983Z,963.8
2019-02-08T04:29:49.668Z,963.8
2019-02-08T04:39:53.303Z,963.9
2019-02-08T04:49:56.990Z,963.8
2019-02-08T05:00:00.695Z,963.8
2019-02-08T05:10:04.373Z,963.8
2019-02-08T05:20:08.065Z,963.7
2019-02-08T05:30:11.759Z,963.7
2019-02-08T05:40:15.377Z,963.7
2019-02-08T05:50:19.057Z,963.4
2019-02-08T06:00:22.739Z,963.5
2019-02-08T06:10:26.437Z,963.4
2019-02-08T06:20:30.245Z,963.3
2019-02-08T06:30:33.929Z,963.2
2019-02-08T06:40:37.582Z,963.2
2019-02-08T06:50:41.261Z,963.2
2019-02-08T07:00:44.928Z,963.2
2019-02-08T07:10:48.606Z,963.1
2019-02-08T07:20:52.280Z,963
2019-02-08T07:30:55.961Z,963.1
2019-02-08T07:40:59.598Z,963.3
2019-02-08T07:51:03.260Z,963.2
2019-02-08T08:01:06.942Z,963.3
2019-02-08T08:11:10.621Z,963.4
2019-02-08T08:21:14.297Z,963.2
2019-02-08T08:31:17.963Z,963.3
2019-02-08T08:41:21.616Z,962.1
2019-02-08T08:51:25.295Z,965
2019-02-08T09:01:28.987Z,966.7
2019-02-08T09:11:32.662Z,967.9
2019-02-08T09:21:36.350Z,966.4
2019-02-08T09:31:40.029Z,963.3
2019-02-08T09:41:43.680Z,961.9
2019-02-08T09:51:48.020Z,968.3
2019-02-08T10:01:51.662Z,967.6
2019-02-08T10:11:55.339Z,967
2019-02-08T10:21:59.019Z,966.4
2019-02-08T10:32:02.693Z,965.7
2019-02-08T10:42:06.343Z,965.1
2019-02-08T10:52:10.020Z,964.5
2019-02-08T11:02:13.698Z,964
2019-02-08T11:12:17.372Z,963.5
2019-02-08T11:22:21.056Z,963.2
2019-02-08T11:32:24.725Z,962.8
2019-02-08T11:42:28.398Z,962.5
2019-02-08T11:52:32.075Z,962
2019-02-08T12:02:41.126Z,961.6
2019-02-08T12:12:44.805Z,961.3
2019-02-08T12:22:48.516Z,960.8
2019-02-08T12:32:52.201Z,960.6
2019-02-08T12:42:55.845Z,960.3
2019-02-08T12:52:59.530Z,960
2019-02-08T13:03:03.197Z,959.9
2019-02-08T13:13:06.872Z,959.6
2019-02-08T13:23:10.545Z,959.4
2019-02-08T13:33:14.213Z,959.1
2019-02-08T13:43:17.914Z,965.4
2019-02-08T13:53:21.587Z,965.1
2019-02-08T14:03:25.282Z,965.1
2019-02-08T14:13:29.000Z,961.8
2019-02-08T14:23:32.683Z,962.7
2019-02-08T14:33:36.359Z,965.4
2019-02-08T14:43:40.028Z,959
2019-02-08T14:53:43.702Z,958.6
2019-02-08T15:03:47.408Z,959.3
2019-02-08T15:13:51.093Z,960.1
2019-02-08T15:23:56.703Z,960.5
2019-02-08T15:34:00.513Z,960.6
2019-02-08T15:44:04.334Z,961
2019-02-08T15:54:08.047Z,962.5
2019-02-08T16:04:11.718Z,962.6
2019-02-08T16:14:15.382Z,959.5
2019-02-08T16:24:19.058Z,957.9
2019-02-08T16:34:22.733Z,956.9
2019-02-08T16:44:26.408Z,963.2
2019-02-08T16:54:30.075Z,962.5
2019-02-08T17:04:33.740Z,962
2019-02-08T17:14:37.418Z,961.6
